Time;durP1;ratioP1;P1;durP2;ratioP2;P2;SDS_P1;SDS_P2;PMS_P1;PMS_P2;Temp;Humidity;BMP_temperature;BMP_pressure;BME280_temperature;BME280_humidity;BME280_pressure;Samples;Min_cycle;Max_cycle;Signal;HPM_P1;HPM_P2
2020/12/25 00:00:06;;;;;;;1.58;1.40;;;;;;;3.56;100.00;95223.59;1044883;28;20604;-73
2020/12/25 00:00:36;;;;;;;1.27;1.17;;;;;;;3.55;100.00;95221.25;1044404;28;20470;-75
2020/12/25 00:01:07;;;;;;;2.72;1.90;;;;;;;3.55;100.00;95229.09;1040958;28;20287;-71
2020/12/25 00:01:38;;;;;;;2.00;1.10;;;;;;;3.56;100.00;95226.19;1041052;28;20415;-72
2020/12/25 00:02:08;;;;;;;1.88;1.45;;;;;;;3.56;100.00;95222.81;1040987;28;20437;-74
2020/12/25 00:02:39;;;;;;;1.70;1.60;;;;;;;3.59;100.00;95217.09;1040919;28;20465;-71
2020/12/25 00:03:14;;;;;;;1.48;1.38;;;;;;;3.58;100.00;95215.50;1041071;28;20497;-73
2020/12/25 00:03:45;;;;;;;1.63;1.23;;;;;;;3.58;100.00;95216.28;1044779;28;20103;-73
2020/12/25 00:04:15;;;;;;;1.63;1.10;;;;;;;3.57;100.00;95219.94;1044886;28;20719;-72
2020/12/25 00:04:50;;;;;;;1.17;1.00;;;;;;;3.58;100.00;95215.50;1044758;28;20047;-70
2020/12/25 00:05:20;;;;;;;2.67;1.02;;;;;;;3.59;100.00;95222.31;1039379;28;20069;-72
2020/12/25 00:05:51;;;;;;;1.23;0.90;;;;;;;3.57;100.00;95214.72;1036656;28;20311;-73
2020/12/25 00:06:22;;;;;;;0.68;0.63;;;;;;;3.55;100.00;95216.00;1036640;28;20379;-71
2020/12/25 00:06:52;;;;;;;0.88;0.80;;;;;;;3.59;100.00;95222.31;1041353;28;20026;-72
2020/12/25 00:07:22;;;;;;;1.20;0.77;;;;;;;3.61;100.00;95220.25;1048988;28;20021;-72
2020/12/25 00:07:53;;;;;;;0.88;0.55;;;;;;;3.56;100.00;95225.41;1040706;28;20084;-70
2020/12/25 00:08:23;;;;;;;0.70;0.70;;;;;;;3.57;100.00;95229.63;1040282;28;20082;-73
2020/12/25 00:08:54;;;;;;;1.15;0.80;;;;;;;3.55;100.00;95227.25;1032604;28;20376;-72
2020/12/25 00:09:24;;;;;;;1.48;1.00;;;;;;;3.57;100.00;95225.19;1032762;28;20034;-73
2020/12/25 00:09:55;;;;;;;1.60;1.08;;;;;;;3.56;100.00;95222.81;1036610;28;20065;-72
2020/12/25 00:10:25;;;;;;;1.25;0.95;;;;;;;3.55;100.00;95232.47;1036628;28;20013;-72
2020/12/25 00:10:56;;;;;;;1.02;0.90;;;;;;;3.56;100.00;95225.41;1040721;28;20540;-73
2020/12/25 00:11:31;;;;;;;2.50;1.20;;;;;;;3.58;100.00;95228.56;1040709;28;20389;-73
2020/12/25 00:12:01;;;;;;;0.98;0.90;;;;;;;3.57;100.00;95227.78;1040623;28;20379;-71
2020/12/25 00:12:32;;;;;;;1.48;1.02;;;;;;;3.58;100.00;95231.97;1040665;28;20268;-72
2020/12/25 00:13:02;;;;;;;2.45;1.40;;;;;;;3.55;100.00;95231.69;1040739;28;20022;-71
2020/12/25 00:13:33;;;;;;;1.58;1.27;;;;;;;3.55;100.00;95234.31;1040691;28;20081;-72
2020/12/25 00:14:03;;;;;;;1.55;1.23;;;;;;;3.56;100.00;95228.81;1040325;28;20101;-72
2020/12/25 00:14:34;;;;;;;3.00;1.40;;;;;;;3.54;100.00;95230.91;1032512;28;20022;-73
2020/12/25 00:15:04;;;;;;;1.30;1.20;;;;;;;3.54;100.00;95230.09;1036588;28;20075;-73
2020/12/25 00:15:35;;;;;;;1.73;1.55;;;;;;;3.50;100.00;95223.78;1032622;28;20033;-73
2020/12/25 00:16:05;;;;;;;1.95;1.70;;;;;;;3.51;100.00;95231.41;1036953;28;20018;-72
2020/12/25 00:16:36;;;;;;;1.58;1.48;;;;;;;3.41;100.00;95220.03;1044627;28;20017;-71
2020/12/25 00:17:06;;;;;;;1.80;1.70;;;;;;;3.48;100.00;95228.47;1036686;28;20028;-71
2020/12/25 00:17:37;;;;;;;2.47;1.80;;;;;;;3.37;100.00;95228.38;1040660;28;20018;-72
2020/12/25 00:18:07;;;;;;;2.47;1.45;;;;;;;3.34;100.00;95230.69;1040737;28;20037;-72
2020/12/25 00:18:41;;;;;;;1.50;1.40;;;;;;;3.33;100.00;95234.34;1040674;28;20028;-70
2020/12/25 00:19:12;;;;;;;3.97;1.73;;;;;;;3.34;100.00;95228.88;1040655;28;20037;-74
2020/12/25 00:19:42;;;;;;;1.60;1.50;;;;;;;3.34;100.00;95231.47;1040749;28;20291;-69
2020/12/25 00:20:13;;;;;;;1.80;1.15;;;;;;;3.36;100.00;95231.25;1040691;28;20386;-71
2020/12/25 00:20:43;;;;;;;1.20;1.10;;;;;;;3.37;100.00;95230.22;1040800;28;20064;-70
2020/12/25 00:21:16;;;;;;;2.53;1.20;;;;;;;3.34;100.00;95231.47;1040969;28;20025;-70
2020/12/25 00:21:46;;;;;;;1.80;1.35;;;;;;;3.35;100.00;95227.84;1036551;28;20022;-69
2020/12/25 00:22:17;;;;;;;1.40;1.30;;;;;;;3.33;100.00;95226.50;1036457;28;20293;-72
2020/12/25 00:22:47;;;;;;;1.30;1.17;;;;;;;3.34;100.00;95236.72;1036668;28;20513;-73
2020/12/25 00:23:18;;;;;;;1.17;1.00;;;;;;;3.35;100.00;95227.03;1036466;28;20461;-73
2020/12/25 00:23:48;;;;;;;1.00;0.90;;;;;;;3.33;100.00;95235.16;1036532;28;20014;-72
2020/12/25 00:24:20;;;;;;;0.90;0.90;;;;;;;3.30;100.00;95221.78;1040674;28;20029;-73
2020/12/25 00:24:50;;;;;;;1.20;1.00;;;;;;;3.30;100.00;95227.78;1040699;28;20497;-71
2020/12/25 00:25:20;;;;;;;0.80;0.80;;;;;;;3.27;100.00;95233.50;1040717;28;20352;-72
2020/12/25 00:25:51;;;;;;;0.68;0.68;;;;;;;3.28;100.00;95234.31;1040598;28;20020;-72
2020/12/25 00:26:25;;;;;;;1.00;0.88;;;;;;;3.23;100.00;95223.78;1040669;28;20029;-72
2020/12/25 00:26:56;;;;;;;1.10;0.98;;;;;;;3.24;100.00;95230.59;1036548;28;20495;-72
2020/12/25 00:27:26;;;;;;;1.27;0.90;;;;;;;3.21;100.00;95229.28;1037091;28;20758;-71
2020/12/25 00:27:57;;;;;;;1.00;0.90;;;;;;;3.16;100.00;95237.81;1040628;28;20028;-68
2020/12/25 00:28:27;;;;;;;0.80;0.75;;;;;;;3.17;100.00;95236.00;1040608;28;20045;-73
2020/12/25 00:29:00;;;;;;;1.08;1.00;;;;;;;3.17;100.00;95234.19;1040719;28;20103;-72
2020/12/25 00:29:30;;;;;;;0.93;0.93;;;;;;;3.15;100.00;95235.44;1040096;28;20033;-70
2020/12/25 00:30:01;;;;;;;0.80;0.80;;;;;;;3.18;100.00;95240.22;1040601;28;20697;-70
2020/12/25 00:30:31;;;;;;;1.25;0.80;;;;;;;3.10;100.00;95236.19;1040584;28;20121;-72
2020/12/25 00:31:02;;;;;;;1.65;0.70;;;;;;;3.09;100.00;95234.63;1040667;28;20025;-72
2020/12/25 00:31:36;;;;;;;0.75;0.75;;;;;;;3.12;100.00;95233.34;1040610;28;20026;-71
2020/12/25 00:32:07;;;;;;;2.53;2.25;;;;;;;3.13;100.00;95229.69;1040907;28;20454;-72
2020/12/25 00:32:37;;;;;;;5.18;4.20;;;;;;;3.11;100.00;95237.78;1040949;28;20252;-72
2020/12/25 00:33:08;;;;;;;2.75;2.47;;;;;;;3.11;100.00;95235.19;1040898;28;20411;-69
2020/12/25 00:33:38;;;;;;;2.53;2.33;;;;;;;3.02;100.00;95241.06;1040858;28;20053;-72
2020/12/25 00:34:10;;;;;;;1.33;1.23;;;;;;;3.04;100.00;95236.38;1040929;28;20029;-72
2020/12/25 00:34:41;;;;;;;1.00;0.90;;;;;;;3.06;100.00;95239.56;1040575;28;20044;-72
2020/12/25 00:35:11;;;;;;;1.35;1.00;;;;;;;3.08;100.00;95237.47;1040680;28;20331;-72
2020/12/25 00:35:42;;;;;;;1.23;0.80;;;;;;;3.08;100.00;95240.88;1040572;28;20029;-73
2020/12/25 00:36:13;;;;;;;0.90;0.90;;;;;;;3.08;100.00;95237.47;1040639;28;20478;-71
2020/12/25 00:36:44;;;;;;;1.23;0.98;;;;;;;3.09;100.00;95234.63;1040879;28;20260;-73
2020/12/25 00:37:15;;;;;;;2.70;2.13;;;;;;;3.06;100.00;95239.56;1040959;28;20029;-72
2020/12/25 00:37:45;;;;;;;2.22;2.03;;;;;;;3.10;100.00;95238.03;1040547;28;20720;-70
2020/12/25 00:38:16;;;;;;;1.20;1.10;;;;;;;3.07;100.00;95238.50;1040283;28;20029;-71
2020/12/25 00:38:46;;;;;;;2.15;1.33;;;;;;;3.04;100.00;95241.63;1040571;28;20030;-72
2020/12/25 00:39:17;;;;;;;1.40;0.98;;;;;;;3.05;100.00;95240.56;1040699;28;20462;-71
2020/12/25 00:39:48;;;;;;;0.75;0.75;;;;;;;3.07;100.00;95247.16;1040872;28;20048;-70
2020/12/25 00:40:18;;;;;;;0.70;0.70;;;;;;;3.08;100.00;95240.88;1040914;28;20601;-69
2020/12/25 00:40:49;;;;;;;0.88;0.68;;;;;;;3.07;100.00;95235.88;1040932;28;20386;-70
2020/12/25 00:41:19;;;;;;;0.70;0.70;;;;;;;3.08;100.00;95242.72;1041021;28;20363;-72
2020/12/25 00:41:50;;;;;;;0.80;0.80;;;;;;;3.09;100.00;95244.28;1040961;28;20036;-69
2020/12/25 00:42:21;;;;;;;0.90;0.80;;;;;;;3.06;100.00;95236.94;1040849;28;20454;-73
2020/12/25 00:42:51;;;;;;;1.42;0.70;;;;;;;3.08;100.00;95237.47;1040919;28;20286;-71
2020/12/25 00:43:22;;;;;;;2.65;0.90;;;;;;;3.06;100.00;95242.16;1040580;28;20033;-71
2020/12/25 00:43:52;;;;;;;0.77;0.70;;;;;;;3.08;100.00;95242.72;1040575;28;20029;-72
2020/12/25 00:44:23;;;;;;;1.40;1.05;;;;;;;3.08;100.00;95245.31;1040324;28;20025;-70
2020/12/25 00:44:53;;;;;;;0.50;0.50;;;;;;;3.08;100.00;95247.94;1040627;28;20033;-70
2020/12/25 00:45:24;;;;;;;0.60;0.60;;;;;;;3.09;100.00;95246.88;1040879;28;20053;-72
2020/12/25 00:45:54;;;;;;;0.50;0.50;;;;;;;3.04;100.00;95252.06;1041010;28;20031;-72
2020/12/25 00:46:25;;;;;;;0.47;0.47;;;;;;;3.05;100.00;95246.56;1040941;28;20021;-72
2020/12/25 00:46:55;;;;;;;0.50;0.50;;;;;;;3.04;100.00;95247.63;1040609;28;20076;-72
2020/12/25 00:47:26;;;;;;;0.50;0.50;;;;;;;3.06;100.00;95248.19;1040631;28;20021;-70
2020/12/25 00:47:56;;;;;;;0.40;0.40;;;;;;;3.03;100.00;95250.47;1040686;28;20087;-71
2020/12/25 00:48:27;;;;;;;0.57;0.52;;;;;;;3.02;100.00;95247.09;1040606;28;20030;-74
2020/12/25 00:48:58;;;;;;;0.68;0.60;;;;;;;3.00;100.00;95250.97;1040832;28;20038;-74
2020/12/25 00:49:28;;;;;;;0.40;0.40;;;;;;;3.00;100.00;95250.97;1040901;28;20520;-72
2020/12/25 00:49:58;;;;;;;0.60;0.60;;;;;;;3.00;100.00;95250.97;1040958;28;20064;-73
2020/12/25 00:50:29;;;;;;;0.50;0.50;;;;;;;3.01;100.00;95252.53;1040974;28;20026;-72
2020/12/25 00:50:59;;;;;;;0.57;0.50;;;;;;;3.01;100.00;95257.78;1040623;28;20462;-72
2020/12/25 00:51:30;;;;;;;0.70;0.70;;;;;;;3.02;100.00;95254.16;1040598;28;20020;-73
2020/12/25 00:52:00;;;;;;;0.43;0.43;;;;;;;2.97;100.00;95258.28;1040696;28;20044;-73
2020/12/25 00:52:31;;;;;;;1.23;0.60;;;;;;;2.91;100.00;95255.81;1040615;28;20068;-73
2020/12/25 00:53:01;;;;;;;0.70;0.70;;;;;;;2.91;100.00;95254.00;1036301;28;20026;-71
2020/12/25 00:53:32;;;;;;;0.90;0.47;;;;;;;2.94;100.00;95252.75;1036539;28;20151;-70
2020/12/25 00:54:02;;;;;;;0.80;0.60;;;;;;;2.95;100.00;95257.72;1036389;28;20030;-72
2020/12/25 00:54:33;;;;;;;0.65;0.60;;;;;;;2.93;100.00;95249.34;1032674;28;20030;-70
2020/12/25 00:55:03;;;;;;;0.73;0.40;;;;;;;2.94;100.00;95256.13;1044839;28;20033;-73
2020/12/25 00:55:34;;;;;;;0.40;0.40;;;;;;;2.93;100.00;95259.78;1036393;28;20029;-72
2020/12/25 00:56:04;;;;;;;0.50;0.47;;;;;;;2.93;100.00;95256.38;1032523;28;20495;-72
2020/12/25 00:56:35;;;;;;;0.50;0.50;;;;;;;2.93;100.00;95257.19;1028323;28;20110;-73
2020/12/25 00:57:05;;;;;;;1.27;0.50;;;;;;;2.94;100.00;95255.34;1028693;28;20035;-73
2020/12/25 00:57:36;;;;;;;0.60;0.60;;;;;;;2.91;100.00;95261.84;1040783;28;20025;-73
2020/12/25 00:58:06;;;;;;;0.60;0.60;;;;;;;2.91;100.00;95259.22;1044843;28;20409;-73
2020/12/25 00:58:37;;;;;;;1.00;0.52;;;;;;;2.89;100.00;95257.88;1044552;28;20025;-71
2020/12/25 00:59:08;;;;;;;0.60;0.55;;;;;;;2.88;100.00;95264.94;1044219;28;20044;-71
2020/12/25 00:59:39;;;;;;;1.00;0.60;;;;;;;2.90;100.00;95262.88;1036440;28;20691;-69
2020/12/25 01:00:09;;;;;;;0.50;0.50;;;;;;;2.89;100.00;95258.66;1036708;28;20034;-71
2020/12/25 01:00:40;;;;;;;0.57;0.40;;;;;;;2.89;100.00;95257.88;1040560;28;20450;-73
2020/12/25 01:01:11;;;;;;;0.50;0.50;;;;;;;2.88;100.00;95259.72;1038854;28;20092;-72
2020/12/25 01:01:42;;;;;;;0.45;0.40;;;;;;;2.86;100.00;95266.22;1044745;28;20025;-74
2020/12/25 01:02:13;;;;;;;1.70;0.60;;;;;;;2.83;100.00;95261.47;1040387;28;20268;-71
2020/12/25 01:02:44;;;;;;;0.60;0.60;;;;;;;2.83;100.00;95267.47;1040740;28;20092;-72
2020/12/25 01:03:14;;;;;;;0.50;0.50;;;;;;;2.83;100.00;95256.25;1044674;28;20779;-72
2020/12/25 01:03:45;;;;;;;0.50;0.50;;;;;;;2.82;100.00;95257.28;1044639;28;20025;-70
2020/12/25 01:04:15;;;;;;;0.63;0.63;;;;;;;2.84;100.00;95258.63;1040634;28;20624;-71
2020/12/25 01:04:46;;;;;;;0.75;0.75;;;;;;;2.86;100.00;95263.63;1044661;28;20021;-73
2020/12/25 01:05:16;;;;;;;0.50;0.50;;;;;;;2.83;100.00;95258.84;1044130;28;20409;-71
2020/12/25 01:05:47;;;;;;;0.63;0.50;;;;;;;2.83;100.00;95264.88;1040629;28;20018;-74
2020/12/25 01:06:18;;;;;;;0.80;0.70;;;;;;;2.89;100.00;95260.50;1044629;28;20017;-72
2020/12/25 01:06:49;;;;;;;1.13;0.60;;;;;;;2.86;100.00;95256.56;1044664;28;20032;-70
2020/12/25 01:07:19;;;;;;;0.90;0.70;;;;;;;2.86;100.00;95258.38;1044641;28;20347;-73
2020/12/25 01:07:50;;;;;;;0.80;0.50;;;;;;;2.87;100.00;95263.34;1048756;28;20014;-73
2020/12/25 01:08:20;;;;;;;0.50;0.50;;;;;;;2.84;100.00;95258.63;1048473;28;20376;-73
2020/12/25 01:08:51;;;;;;;0.95;0.50;;;;;;;2.86;100.00;95261.78;1040548;28;20493;-73
2020/12/25 01:09:24;;;;;;;1.00;0.95;;;;;;;2.89;100.00;95260.50;1040456;28;20390;-71
2020/12/25 01:09:55;;;;;;;1.25;1.15;;;;;;;2.89;100.00;95258.66;1036380;28;20022;-73
2020/12/25 01:10:26;;;;;;;1.13;1.02;;;;;;;2.89;100.00;95257.88;1037611;28;20267;-73
2020/12/25 01:10:56;;;;;;;1.25;1.15;;;;;;;2.89;100.00;95261.28;1040421;28;20299;-73
2020/12/25 01:11:27;;;;;;;5.50;4.38;;;;;;;2.89;100.00;95266.50;1036609;28;20018;-73
2020/12/25 01:12:01;;;;;;;3.17;2.80;;;;;;;2.89;100.00;95261.28;1040452;28;20021;-72
2020/12/25 01:12:31;;;;;;;6.65;5.10;;;;;;;2.88;100.00;95259.72;1036921;28;20022;-73
2020/12/25 01:13:02;;;;;;;7.43;5.60;;;;;;;2.91;100.00;95263.66;1041050;28;20256;-70
2020/12/25 01:13:33;;;;;;;2.72;2.50;;;;;;;2.91;100.00;95264.44;1044586;28;20079;-73
2020/12/25 01:14:03;;;;;;;1.13;1.02;;;;;;;2.91;100.00;95264.44;1044767;28;20354;-74
2020/12/25 01:14:34;;;;;;;0.95;0.95;;;;;;;2.88;100.00;95259.72;1044600;28;20259;-73
2020/12/25 01:15:04;;;;;;;0.80;0.80;;;;;;;2.92;100.00;95267.88;1044946;28;20592;-72
2020/12/25 01:15:35;;;;;;;1.00;0.90;;;;;;;2.89;100.00;95266.50;1044866;28;20026;-72
2020/12/25 01:16:07;;;;;;;1.17;1.00;;;;;;;2.87;100.00;95268.56;1044891;28;20147;-70
2020/12/25 01:16:38;;;;;;;1.27;0.80;;;;;;;2.88;100.00;95270.16;1044870;28;20028;-73
2020/12/25 01:17:08;;;;;;;0.77;0.77;;;;;;;2.89;100.00;95261.28;1044415;28;20279;-72
2020/12/25 01:17:39;;;;;;;0.88;0.80;;;;;;;2.87;100.00;95265.19;1044594;28;20115;-73
2020/12/25 01:18:09;;;;;;;0.90;0.80;;;;;;;2.88;100.00;95264.94;1044574;28;20028;-74
2020/12/25 01:18:40;;;;;;;0.88;0.85;;;;;;;2.90;100.00;95267.31;1040646;28;20066;-73
2020/12/25 01:19:10;;;;;;;0.80;0.80;;;;;;;2.87;100.00;95265.97;1040469;28;20121;-75
2020/12/25 01:19:41;;;;;;;1.13;1.10;;;;;;;2.89;100.00;95260.50;1040399;28;20363;-73
2020/12/25 01:20:11;;;;;;;0.80;0.80;;;;;;;2.83;100.00;95261.47;1040556;28;20409;-71
2020/12/25 01:20:41;;;;;;;0.70;0.70;;;;;;;2.90;100.00;95262.09;1040588;28;20017;-73
2020/12/25 01:21:12;;;;;;;0.60;0.60;;;;;;;2.89;100.00;95263.91;1040499;28;20017;-73
2020/12/25 01:21:43;;;;;;;0.95;0.90;;;;;;;2.88;100.00;95264.94;1040529;28;20021;-73
2020/12/25 01:22:14;;;;;;;0.93;0.93;;;;;;;2.91;100.00;95271.50;1040575;28;20383;-73
2020/12/25 01:22:45;;;;;;;1.10;0.80;;;;;;;2.90;100.00;95275.94;1044494;28;20256;-70
2020/12/25 01:23:15;;;;;;;1.15;0.90;;;;;;;2.89;100.00;95276.97;1040387;28;20103;-73
2020/12/25 01:23:46;;;;;;;0.77;0.77;;;;;;;2.84;100.00;95271.69;1044632;28;20021;-73
2020/12/25 01:24:16;;;;;;;0.80;0.80;;;;;;;2.85;100.00;95285.53;1040390;28;20107;-73
2020/12/25 01:24:47;;;;;;;1.02;0.90;;;;;;;2.81;100.00;95279.22;1040512;28;20433;-72
2020/12/25 01:25:17;;;;;;;0.77;0.77;;;;;;;2.88;100.00;95272.00;1048593;28;20028;-72
2020/12/25 01:25:48;;;;;;;0.88;0.88;;;;;;;2.90;100.00;95278.56;1048951;28;20012;-73
2020/12/25 01:26:18;;;;;;;1.10;1.00;;;;;;;2.89;100.00;95281.41;1052831;28;20488;-72
2020/12/25 01:26:49;;;;;;;0.90;0.90;;;;;;;2.89;100.00;95278.78;1052791;28;20137;-72
2020/12/25 01:27:19;;;;;;;0.80;0.80;;;;;;;2.90;100.00;95275.16;1044830;28;20370;-73
2020/12/25 01:27:50;;;;;;;0.90;0.90;;;;;;;2.91;100.00;95280.13;1044864;28;20025;-74
2020/12/25 01:28:20;;;;;;;1.25;1.13;;;;;;;2.92;100.00;95278.31;1044807;28;20466;-72
2020/12/25 01:28:53;;;;;;;1.10;1.00;;;;;;;2.88;100.00;95280.63;1044672;28;20048;-71
2020/12/25 01:29:23;;;;;;;0.63;0.63;;;;;;;2.88;100.00;95275.41;1044552;28;20028;-71
2020/12/25 01:29:54;;;;;;;0.77;0.77;;;;;;;2.88;100.00;95279.84;1044834;28;20716;-72
2020/12/25 01:30:24;;;;;;;1.80;0.80;;;;;;;2.84;100.00;95282.16;1044819;28;20025;-75
2020/12/25 01:30:55;;;;;;;0.82;0.82;;;;;;;2.87;100.00;95276.41;1044255;28;20519;-73
2020/12/25 01:31:25;;;;;;;0.70;0.70;;;;;;;2.88;100.00;95288.47;1044491;28;20036;-71
2020/12/25 01:31:56;;;;;;;0.70;0.70;;;;;;;2.89;100.00;95287.41;1044522;28;20040;-73
2020/12/25 01:32:26;;;;;;;0.85;0.85;;;;;;;2.87;100.00;95283.47;1044637;28;20051;-72
2020/12/25 01:32:57;;;;;;;1.15;1.05;;;;;;;2.88;100.00;95285.84;1048475;28;20012;-73
2020/12/25 01:33:27;;;;;;;0.85;0.85;;;;;;;2.85;100.00;95288.94;1040420;28;20017;-72
2020/12/25 01:33:58;;;;;;;0.80;0.80;;;;;;;2.86;100.00;95285.31;1040474;28;20028;-73
2020/12/25 01:34:28;;;;;;;1.98;0.88;;;;;;;2.84;100.00;95283.97;1040361;28;20017;-73
2020/12/25 01:34:59;;;;;;;1.38;0.70;;;;;;;2.83;100.00;95290.22;1040406;28;20501;-73
2020/12/25 01:35:29;;;;;;;0.95;0.90;;;;;;;2.87;100.00;95286.09;1040284;28;20037;-73
2020/12/25 01:36:00;;;;;;;0.88;0.88;;;;;;;2.90;100.00;95283.00;1039745;28;20033;-73
2020/12/25 01:36:31;;;;;;;1.15;0.75;;;;;;;2.89;100.00;95286.63;1036329;28;20062;-72
2020/12/25 01:37:02;;;;;;;0.77;0.77;;;;;;;2.90;100.00;95290.84;1036418;28;20253;-71
2020/12/25 01:37:32;;;;;;;1.05;0.95;;;;;;;2.89;100.00;95284.03;1036188;28;20142;-73
2020/12/25 01:38:04;;;;;;;0.80;0.80;;;;;;;2.88;100.00;95285.84;1036206;28;20021;-71
2020/12/25 01:38:35;;;;;;;0.80;0.80;;;;;;;2.89;100.00;95286.63;1040708;28;20022;-72
2020/12/25 01:39:05;;;;;;;1.60;0.80;;;;;;;2.88;100.00;95287.69;1040677;28;20256;-73
2020/12/25 01:39:35;;;;;;;0.90;0.90;;;;;;;2.91;100.00;95282.75;1040367;28;20425;-72
2020/12/25 01:40:06;;;;;;;0.80;0.80;;;;;;;2.87;100.00;95288.69;1040380;28;20013;-72
2020/12/25 01:40:36;;;;;;;1.00;0.90;;;;;;;2.89;100.00;95287.41;1036214;28;20024;-73
2020/12/25 01:41:07;;;;;;;0.80;0.80;;;;;;;2.90;100.00;95289.00;1036339;28;20026;-72
2020/12/25 01:41:37;;;;;;;0.88;0.88;;;;;;;2.91;100.00;95293.19;1040379;28;20029;-74
2020/12/25 01:42:08;;;;;;;1.10;1.00;;;;;;;2.87;100.00;95289.47;1040323;28;20018;-72
2020/12/25 01:42:38;;;;;;;1.20;1.10;;;;;;;2.86;100.00;95287.13;1036405;28;20026;-74
2020/12/25 01:43:09;;;;;;;1.40;1.25;;;;;;;2.88;100.00;95291.06;1036272;28;20032;-73
2020/12/25 01:43:39;;;;;;;1.40;0.88;;;;;;;2.89;100.00;95286.63;1036240;28;20026;-72
2020/12/25 01:44:10;;;;;;;0.90;0.90;;;;;;;2.90;100.00;95283.00;1032296;28;20053;-72
2020/12/25 01:44:40;;;;;;;1.30;1.00;;;;;;;2.90;100.00;95294.25;1032024;28;20059;-74
2020/12/25 01:45:11;;;;;;;1.30;1.20;;;;;;;2.86;100.00;95287.91;1036412;28;20018;-73
2020/12/25 01:45:41;;;;;;;1.58;0.98;;;;;;;2.92;100.00;95283.56;1036309;28;20430;-71
2020/12/25 01:46:12;;;;;;;0.98;0.90;;;;;;;2.91;100.00;95285.34;1040469;28;20013;-72
2020/12/25 01:46:43;;;;;;;1.50;1.20;;;;;;;2.90;100.00;95283.78;1040369;28;20030;-73
2020/12/25 01:47:13;;;;;;;1.02;1.00;;;;;;;2.94;100.00;95286.72;1040392;28;20075;-73
2020/12/25 01:47:44;;;;;;;0.85;0.85;;;;;;;2.95;100.00;95290.88;1040347;28;20462;-73
2020/12/25 01:48:14;;;;;;;1.00;0.90;;;;;;;3.00;100.00;95290.19;1036356;28;20115;-72
2020/12/25 01:48:44;;;;;;;1.20;1.10;;;;;;;2.95;100.00;95286.47;1040377;28;20028;-72
2020/12/25 01:49:15;;;;;;;1.02;1.02;;;;;;;2.95;100.00;95285.66;1036147;28;20025;-73
2020/12/25 01:49:46;;;;;;;1.20;1.00;;;;;;;2.98;100.00;95285.19;1032164;28;20026;-73
2020/12/25 01:50:16;;;;;;;0.85;0.80;;;;;;;2.96;100.00;95288.03;1028228;28;20030;-71
2020/12/25 01:50:47;;;;;;;2.88;1.20;;;;;;;2.96;100.00;95282.81;1028450;28;20057;-72
2020/12/25 01:51:17;;;;;;;1.10;1.00;;;;;;;2.96;100.00;95285.44;1032385;28;20057;-73
2020/12/25 01:51:48;;;;;;;1.30;1.17;;;;;;;2.93;100.00;95283.31;1032136;28;20081;-71
2020/12/25 01:52:18;;;;;;;1.00;1.00;;;;;;;2.96;100.00;95289.88;1036212;28;20581;-73
2020/12/25 01:52:50;;;;;;;0.95;0.90;;;;;;;2.96;100.00;95284.66;1036179;28;20014;-73
2020/12/25 01:53:21;;;;;;;1.30;0.90;;;;;;;2.94;100.00;95282.28;1036266;28;20022;-72
2020/12/25 01:53:51;;;;;;;1.10;1.00;;;;;;;2.93;100.00;95283.31;1032082;28;20335;-72
2020/12/25 01:54:22;;;;;;;1.30;1.20;;;;;;;2.91;100.00;95287.19;1032586;28;20030;-70
2020/12/25 01:54:52;;;;;;;1.02;1.02;;;;;;;2.90;100.00;95288.22;1032169;28;20482;-72
2020/12/25 01:55:28;;;;;;;1.20;1.10;;;;;;;2.91;100.00;95279.34;1032428;28;20463;-73
2020/12/25 01:55:58;;;;;;;1.20;1.10;;;;;;;2.87;100.00;95276.41;1036260;28;20040;-71
2020/12/25 01:56:29;;;;;;;0.82;0.82;;;;;;;2.90;100.00;95290.84;1036927;28;20799;-73
2020/12/25 01:56:59;;;;;;;1.63;1.45;;;;;;;2.87;100.00;95283.47;1040315;28;20033;-73
2020/12/25 01:57:30;;;;;;;1.33;1.23;;;;;;;2.89;100.00;95286.63;1040309;28;20025;-70
2020/12/25 01:58:00;;;;;;;1.30;1.20;;;;;;;2.89;100.00;95284.81;1040398;28;20429;-72
2020/12/25 01:58:31;;;;;;;1.10;1.10;;;;;;;2.92;100.00;95289.56;1036344;28;20064;-71
2020/12/25 01:59:01;;;;;;;1.30;1.20;;;;;;;2.90;100.00;95283.00;1040327;28;20112;-72
2020/12/25 01:59:32;;;;;;;1.30;1.20;;;;;;;2.91;100.00;95285.34;1039992;28;20062;-72
2020/12/25 02:00:04;;;;;;;1.35;1.25;;;;;;;2.93;100.00;95285.94;1040320;28;20033;-72
2020/12/25 02:00:34;;;;;;;1.52;1.42;;;;;;;2.94;100.00;95281.50;1040538;28;20025;-72
2020/12/25 02:01:05;;;;;;;2.28;1.42;;;;;;;2.93;100.00;95292.97;1040587;28;20260;-72
2020/12/25 02:01:35;;;;;;;1.48;1.38;;;;;;;2.89;100.00;95284.81;1040596;28;20029;-72
2020/12/25 02:02:07;;;;;;;1.58;1.48;;;;;;;2.89;100.00;95287.41;1040560;28;20382;-73
2020/12/25 02:02:37;;;;;;;1.63;1.52;;;;;;;2.91;100.00;95285.34;1036170;28;20053;-73
2020/12/25 02:03:08;;;;;;;1.67;1.58;;;;;;;2.93;100.00;95285.13;1036173;28;20250;-70
2020/12/25 02:03:38;;;;;;;1.50;1.40;;;;;;;2.95;100.00;95283.88;1036243;28;20185;-74
2020/12/25 02:04:08;;;;;;;1.88;1.77;;;;;;;2.93;100.00;95283.31;1036239;28;20383;-73
2020/12/25 02:04:39;;;;;;;1.92;1.75;;;;;;;2.95;100.00;95286.47;1048486;28;20020;-74
2020/12/25 02:05:12;;;;;;;1.92;1.83;;;;;;;2.93;100.00;95279.88;1044474;28;20098;-73
2020/12/25 02:05:43;;;;;;;1.52;1.42;;;;;;;2.92;100.00;95286.94;1044350;28;20511;-73
2020/12/25 02:06:14;;;;;;;1.63;1.52;;;;;;;2.95;100.00;95296.13;1039721;28;20252;-72
2020/12/25 02:06:44;;;;;;;1.70;1.60;;;;;;;2.96;100.00;95287.25;1036654;28;20013;-73
2020/12/25 02:07:14;;;;;;;2.17;1.98;;;;;;;2.95;100.00;95288.28;1040391;28;20083;-73
2020/12/25 02:07:45;;;;;;;1.65;1.55;;;;;;;2.94;100.00;95282.28;1040259;28;20013;-72
2020/12/25 02:08:16;;;;;;;1.85;1.67;;;;;;;2.92;100.00;95286.16;1040243;28;20013;-73
2020/12/25 02:08:46;;;;;;;1.50;1.40;;;;;;;2.91;100.00;95292.41;1040562;28;20458;-72
2020/12/25 02:09:16;;;;;;;1.85;1.70;;;;;;;2.91;100.00;95287.97;1040208;28;20021;-72
2020/12/25 02:09:47;;;;;;;1.70;1.60;;;;;;;2.90;100.00;95289.00;1032023;28;20069;-73
2020/12/25 02:10:17;;;;;;;1.40;1.30;;;;;;;2.89;100.00;95289.25;1032111;28;20383;-71
2020/12/25 02:10:48;;;;;;;1.30;1.10;;;;;;;2.88;100.00;95285.84;1031985;28;20017;-73
2020/12/25 02:11:18;;;;;;;1.77;1.67;;;;;;;2.87;100.00;95289.47;1024308;28;20011;-73
2020/12/25 02:11:49;;;;;;;1.70;1.60;;;;;;;2.88;100.00;95283.25;1032202;28;20072;-72
2020/12/25 02:12:22;;;;;;;1.70;1.60;;;;;;;2.89;100.00;95286.63;1036091;28;20018;-73
2020/12/25 02:12:53;;;;;;;1.70;1.60;;;;;;;2.90;100.00;95277.78;1040569;28;20021;-72
2020/12/25 02:13:23;;;;;;;1.90;1.80;;;;;;;2.90;100.00;95281.19;1044471;28;20612;-73
2020/12/25 02:13:54;;;;;;;1.92;1.83;;;;;;;2.90;100.00;95286.41;1040647;28;20031;-71
2020/12/25 02:14:24;;;;;;;1.48;1.38;;;;;;;2.87;100.00;95284.25;1044080;28;20155;-72
2020/12/25 02:14:55;;;;;;;1.40;1.30;;;;;;;2.88;100.00;95283.25;1040208;28;20020;-71
2020/12/25 02:15:25;;;;;;;1.70;1.60;;;;;;;2.90;100.00;95283.78;1040270;28;20017;-75
2020/12/25 02:15:55;;;;;;;1.60;1.50;;;;;;;2.91;100.00;95287.97;1044292;28;20021;-72
2020/12/25 02:16:26;;;;;;;2.08;1.92;;;;;;;2.92;100.00;95281.72;1040166;28;20018;-71
2020/12/25 02:16:56;;;;;;;1.70;1.60;;;;;;;2.90;100.00;95288.22;1040206;28;20382;-71
2020/12/25 02:17:27;;;;;;;2.20;1.60;;;;;;;2.86;100.00;95279.28;1040273;28;20547;-70
2020/12/25 02:17:57;;;;;;;2.20;1.98;;;;;;;2.83;100.00;95285.78;1040226;28;20111;-73
2020/12/25 02:18:32;;;;;;;1.83;1.67;;;;;;;2.85;100.00;95288.94;1039882;28;20565;-72
2020/12/25 02:19:03;;;;;;;1.70;1.60;;;;;;;2.87;100.00;95288.69;1040454;28;20024;-72
2020/12/25 02:19:39;;;;;;;1.85;1.75;;;;;;;2.87;100.00;95283.47;1040593;28;20263;-71
2020/12/25 02:20:10;;;;;;;1.60;1.50;;;;;;;2.88;100.00;95285.84;1040534;28;20033;-74
2020/12/25 02:20:40;;;;;;;2.25;2.05;;;;;;;2.88;100.00;95283.25;1040474;28;20256;-73
2020/12/25 02:21:11;;;;;;;1.98;1.77;;;;;;;2.88;100.00;95282.47;1040570;28;20455;-73
2020/12/25 02:21:41;;;;;;;1.80;1.70;;;;;;;2.89;100.00;95286.63;1040181;28;20355;-74
2020/12/25 02:22:12;;;;;;;1.80;1.70;;;;;;;2.85;100.00;95286.31;1040091;28;20355;-73
2020/12/25 02:22:43;;;;;;;1.98;1.80;;;;;;;2.87;100.00;95289.47;1040263;28;20096;-74
2020/12/25 02:23:13;;;;;;;1.80;1.70;;;;;;;2.89;100.00;95284.81;1039854;28;20091;-71
2020/12/25 02:23:44;;;;;;;2.13;1.92;;;;;;;2.89;100.00;95281.41;1040572;28;20021;-74
2020/12/25 02:24:15;;;;;;;2.25;2.05;;;;;;;2.87;100.00;95286.88;1040055;28;20461;-73
2020/12/25 02:24:45;;;;;;;1.90;1.80;;;;;;;2.88;100.00;95293.69;1040262;28;20253;-71